createdAt,value
2022-08-08T00:00:59.962Z,57.82
2022-08-08T00:02:03.508Z,57.81
2022-08-08T00:02:57.667Z,58.04
2022-08-08T00:04:06.634Z,57.51
2022-08-08T00:05:22.382Z,57.71
2022-08-08T00:06:50.779Z,57.66
2022-08-08T00:07:59.364Z,57.94
2022-08-08T00:09:07.944Z,58.08
2022-08-08T00:10:14.999Z,57.90
2022-08-08T00:11:46.585Z,58.04
2022-08-08T00:13:05.205Z,57.34
2022-08-08T00:14:58.656Z,57.31
2022-08-08T00:15:56.877Z,57.54
2022-08-08T00:17:23.031Z,57.61
2022-08-08T00:18:36.698Z,57.19
2022-08-08T00:19:51.225Z,57.82
2022-08-08T00:20:57.042Z,57.33
2022-08-08T00:22:04.060Z,57.83
2022-08-08T00:23:11.711Z,57.76
2022-08-08T00:24:24.190Z,57.97
2022-08-08T00:25:46.151Z,57.54
2022-08-08T00:26:52.446Z,57.74
2022-08-08T00:28:01.533Z,57.99
2022-08-08T00:29:12.633Z,57.50
2022-08-08T00:30:23.965Z,57.81
2022-08-08T00:32:14.793Z,57.84
2022-08-08T00:33:02.803Z,57.89
2022-08-08T00:34:38.709Z,57.82
2022-08-08T00:35:49.536Z,57.57
2022-08-08T00:37:03.727Z,57.65
2022-08-08T00:38:31.248Z,57.96
2022-08-08T00:41:09.056Z,57.86
2022-08-08T00:42:08.304Z,57.36
2022-08-08T00:43:59.191Z,57.87
2022-08-08T00:45:35.345Z,57.94
2022-08-08T00:47:19.557Z,57.68
2022-08-08T00:49:02.101Z,57.89
2022-08-08T00:50:52.381Z,57.83
2022-08-08T00:52:20.555Z,57.37
2022-08-08T00:53:43.523Z,57.68
2022-08-08T00:55:35.878Z,57.73
2022-08-08T00:57:23.562Z,57.59
2022-08-08T00:59:14.482Z,57.75
2022-08-08T01:00:26.632Z,57.62
2022-08-08T01:01:40.029Z,57.66
2022-08-08T01:04:02.348Z,57.40
2022-08-08T01:05:59.751Z,58.20
2022-08-08T01:07:55.667Z,58.11
2022-08-08T01:09:41.679Z,57.77
2022-08-08T01:11:56.628Z,58.23
2022-08-08T01:13:57.905Z,58.43
2022-08-08T01:15:44.314Z,58.09
2022-08-08T01:17:55.635Z,57.41
2022-08-08T01:19:52.019Z,57.69
2022-08-08T01:22:12.513Z,58.11
2022-08-08T01:24:06.797Z,57.70
2022-08-08T01:25:43.028Z,57.96
2022-08-08T01:27:16.202Z,58.07
2022-08-08T01:28:52.681Z,57.84
2022-08-08T01:30:43.296Z,58.15
2022-08-08T01:32:30.693Z,58.18
2022-08-08T01:34:05.055Z,57.90
2022-08-08T01:35:32.836Z,57.78
2022-08-08T01:37:57.181Z,58.13
2022-08-08T01:39:07.214Z,57.81
2022-08-08T01:40:19.971Z,57.83
2022-08-08T01:41:34.236Z,57.97
2022-08-08T01:42:50.141Z,57.99
2022-08-08T01:44:06.564Z,57.95
2022-08-08T01:45:32.982Z,57.39
2022-08-08T01:46:52.797Z,57.73
2022-08-08T01:48:23.807Z,58.27
2022-08-08T01:49:44.263Z,58.14
2022-08-08T01:51:17.143Z,57.68
2022-08-08T01:54:04.688Z,58.06
2022-08-08T01:55:26.799Z,58.22
2022-08-08T01:56:29.741Z,58.38
2022-08-08T01:57:21.269Z,58.19
2022-08-08T01:58:47.077Z,57.73
2022-08-08T02:00:15.405Z,57.64
2022-08-08T02:01:53.727Z,57.83
2022-08-08T02:03:55.114Z,58.19
2022-08-08T02:04:52.158Z,58.30
2022-08-08T02:06:10.420Z,58.37
2022-08-08T02:07:48.796Z,58.20
2022-08-08T02:08:59.793Z,58.11
2022-08-08T02:10:37.141Z,58.20
2022-08-08T02:11:59.972Z,57.61
2022-08-08T02:13:52.654Z,58.16
2022-08-08T02:14:55.567Z,58.02
2022-08-08T02:16:21.077Z,57.59
2022-08-08T02:17:42.583Z,57.98
2022-08-08T02:19:26.972Z,57.71
2022-08-08T02:21:01.425Z,57.62
2022-08-08T02:22:31.539Z,57.98
2022-08-08T02:23:44.042Z,58.32
2022-08-08T02:24:53.921Z,57.93
2022-08-08T02:26:01.578Z,58.16
2022-08-08T02:27:12.121Z,57.96
2022-08-08T02:28:26.088Z,57.75
2022-08-08T02:30:02.308Z,57.64
2022-08-08T02:31:59.017Z,58.15
2022-08-08T02:33:06.062Z,58.35
2022-08-08T02:34:27.616Z,58.14
2022-08-08T02:36:03.939Z,58.06
2022-08-08T02:37:53.077Z,58.03
2022-08-08T02:39:42.451Z,58.00
2022-08-08T02:40:49.977Z,58.20
2022-08-08T02:42:36.264Z,58.39
2022-08-08T02:44:38.863Z,58.17
2022-08-08T02:45:57.555Z,58.31
2022-08-08T02:47:38.390Z,58.26
2022-08-08T02:49:14.672Z,57.78
2022-08-08T02:51:01.727Z,58.24
2022-08-08T02:52:43.575Z,58.01
2022-08-08T02:54:14.560Z,58.07
2022-08-08T02:55:39.027Z,58.23
2022-08-08T02:57:22.383Z,57.83
2022-08-08T02:59:02.681Z,57.78
2022-08-08T03:00:55.903Z,57.74
2022-08-08T03:02:38.358Z,57.81
2022-08-08T03:05:05.253Z,57.83
2022-08-08T03:06:34.956Z,57.80
2022-08-08T03:08:17.331Z,58.37
2022-08-08T03:09:57.341Z,58.06
2022-08-08T03:11:47.827Z,57.60
2022-08-08T03:15:59.222Z,57.53
2022-08-08T03:16:02.229Z,57.79
2022-08-08T03:17:11.208Z,58.10
2022-08-08T03:18:31.216Z,58.32
2022-08-08T03:20:03.663Z,58.13
2022-08-08T03:21:09.669Z,58.03
2022-08-08T03:22:38.084Z,58.08
2022-08-08T03:23:56.498Z,57.79
2022-08-08T03:25:02.662Z,58.55
2022-08-08T03:26:06.162Z,58.05
2022-08-08T03:27:16.269Z,57.88
2022-08-08T03:28:26.305Z,57.98
2022-08-08T03:29:54.628Z,58.26
2022-08-08T03:31:07.833Z,58.05
2022-08-08T03:32:41.463Z,57.77
2022-08-08T03:33:54.969Z,58.02
2022-08-08T03:35:02.696Z,57.66
2022-08-08T03:36:09.333Z,58.39
2022-08-08T03:38:00.255Z,57.81
2022-08-08T03:38:56.432Z,58.48
2022-08-08T03:40:10.747Z,58.30
2022-08-08T03:42:12.562Z,57.96
2022-08-08T03:42:47.767Z,58.63
2022-08-08T03:43:59.673Z,57.89
2022-08-08T03:46:03.230Z,58.22
2022-08-08T03:46:47.122Z,58.46
2022-08-08T03:47:57.777Z,58.44
2022-08-08T03:49:30.954Z,58.38
2022-08-08T03:50:29.781Z,58.03
2022-08-08T03:51:50.422Z,58.31
2022-08-08T03:52:57.287Z,58.38
2022-08-08T03:54:02.450Z,58.29
2022-08-08T03:55:20.109Z,58.41
2022-08-08T03:56:35.754Z,58.10
2022-08-08T03:58:09.518Z,57.99
2022-08-08T03:59:01.871Z,58.12
2022-08-08T04:00:11.297Z,57.92
2022-08-08T04:01:25.919Z,57.70
2022-08-08T04:02:46.968Z,58.23
2022-08-08T04:03:58.166Z,58.04
2022-08-08T04:05:05.134Z,58.59
2022-08-08T04:06:16.435Z,58.00
2022-08-08T04:07:19.032Z,57.92
2022-08-08T04:08:33.276Z,58.28
2022-08-08T04:10:03.095Z,57.95
2022-08-08T04:11:11.163Z,58.06
2022-08-08T04:12:20.284Z,58.37
2022-08-08T04:13:26.369Z,58.65
2022-08-08T04:14:36.198Z,58.20
2022-08-08T04:16:03.936Z,58.58
2022-08-08T04:17:04.258Z,58.65
2022-08-08T04:18:16.418Z,58.18
2022-08-08T04:19:23.967Z,58.55
2022-08-08T04:20:33.757Z,58.20
2022-08-08T04:21:41.488Z,58.63
2022-08-08T04:22:51.371Z,58.60
2022-08-08T04:24:05.259Z,58.32
2022-08-08T04:25:19.536Z,58.33
2022-08-08T04:26:22.511Z,58.27
2022-08-08T04:28:03.008Z,58.10
2022-08-08T04:28:54.560Z,58.57
2022-08-08T04:30:00.773Z,58.13
2022-08-08T04:31:30.600Z,58.54
2022-08-08T04:32:42.489Z,58.04
2022-08-08T04:33:51.162Z,58.17
2022-08-08T04:34:58.268Z,58.24
2022-08-08T04:36:07.108Z,58.26
2022-08-08T04:37:09.500Z,58.26
2022-08-08T04:38:12.452Z,58.42
2022-08-08T04:40:03.479Z,58.83
2022-08-08T04:40:53.858Z,58.88
2022-08-08T04:41:57.411Z,58.83
2022-08-08T04:43:01.757Z,58.64
2022-08-08T04:44:14.883Z,58.83
2022-08-08T04:45:19.725Z,58.37
2022-08-08T04:46:23.454Z,58.19
2022-08-08T04:47:28.472Z,58.19
2022-08-08T04:48:32.304Z,58.56
2022-08-08T04:50:00.489Z,58.35
2022-08-08T04:50:58.422Z,58.09
2022-08-08T04:52:06.335Z,58.72
2022-08-08T04:53:53.110Z,58.69
2022-08-08T04:54:42.316Z,58.67
2022-08-08T04:55:55.245Z,58.33
2022-08-08T04:57:02.780Z,58.24
2022-08-08T04:58:08.167Z,58.23
2022-08-08T04:59:15.627Z,58.60
2022-08-08T05:00:19.892Z,58.53
2022-08-08T05:01:25.235Z,58.14
2022-08-08T05:02:38.468Z,58.35
2022-08-08T05:04:07.568Z,57.82
2022-08-08T05:05:20.117Z,57.82
2022-08-08T05:06:25.534Z,57.98
2022-08-08T05:07:33.142Z,58.09
2022-08-08T05:08:44.369Z,57.39
2022-08-08T05:09:48.509Z,57.97
2022-08-08T05:10:51.497Z,57.66
2022-08-08T05:11:56.903Z,57.61
2022-08-08T05:13:03.276Z,57.17
2022-08-08T05:14:14.071Z,57.44
2022-08-08T05:15:20.176Z,56.92
2022-08-08T05:16:51.794Z,57.44
2022-08-08T05:17:54.275Z,57.78
2022-08-08T05:18:58.938Z,57.37
2022-08-08T05:20:09.655Z,56.88
2022-08-08T05:21:19.321Z,56.53
2022-08-08T05:22:24.015Z,57.00
2022-08-08T05:23:26.821Z,57.04
2022-08-08T05:24:33.328Z,56.49
2022-08-08T05:25:41.408Z,56.52
2022-08-08T05:26:46.338Z,56.40
2022-08-08T05:27:54.852Z,56.66
2022-08-08T05:29:06.156Z,56.98
2022-08-08T05:30:11.915Z,56.38
2022-08-08T05:32:03.924Z,56.68
2022-08-08T05:32:43.437Z,56.10
2022-08-08T05:33:48.527Z,56.05
2022-08-08T05:34:53.938Z,55.84
2022-08-08T05:36:03.428Z,56.02
2022-08-08T05:37:18.555Z,55.58
2022-08-08T05:38:31.424Z,55.69
2022-08-08T05:39:44.163Z,55.42
2022-08-08T05:40:53.235Z,54.84
2022-08-08T05:41:59.231Z,55.61
2022-08-08T05:43:38.133Z,55.44
2022-08-08T05:44:42.105Z,54.99
2022-08-08T05:45:53.101Z,55.49
2022-08-08T05:47:03.310Z,54.97
2022-08-08T05:48:08.568Z,55.52
2022-08-08T05:49:12.375Z,55.27
2022-08-08T05:50:18.986Z,55.47
2022-08-08T05:51:23.415Z,56.00
2022-08-08T05:52:35.461Z,55.91
2022-08-08T05:54:24.350Z,55.71
2022-08-08T05:55:08.958Z,55.05
2022-08-08T05:56:16.177Z,55.62
2022-08-08T05:58:05.090Z,55.76
2022-08-08T05:58:57.045Z,54.94
2022-08-08T06:00:22.580Z,54.51
2022-08-08T06:01:56.612Z,54.39
2022-08-08T06:03:17.345Z,55.27
2022-08-08T06:04:32.801Z,54.76
2022-08-08T06:05:44.132Z,54.64
2022-08-08T06:06:49.241Z,54.81
2022-08-08T06:08:02.593Z,54.57
2022-08-08T06:09:58.331Z,54.28
2022-08-08T06:10:40.708Z,54.89
2022-08-08T06:11:46.792Z,54.19
2022-08-08T06:12:50.999Z,53.86
2022-08-08T06:13:54.216Z,54.00
2022-08-08T06:14:59.979Z,54.58
2022-08-08T06:16:04.595Z,55.17
2022-08-08T06:17:50.349Z,54.50
2022-08-08T06:18:54.679Z,54.45
2022-08-08T06:19:58.741Z,54.31
2022-08-08T06:21:11.255Z,54.38
2022-08-08T06:22:33.337Z,54.34
2022-08-08T06:23:48.931Z,54.07
2022-08-08T06:25:02.454Z,54.24
2022-08-08T06:26:38.926Z,54.22
2022-08-08T06:27:41.941Z,54.86
2022-08-08T06:28:54.721Z,54.89
2022-08-08T06:30:05.035Z,54.18
2022-08-08T06:31:21.709Z,54.45
2022-08-08T06:32:41.978Z,54.03
2022-08-08T06:34:25.653Z,54.45
2022-08-08T06:36:07.627Z,54.15
2022-08-08T06:36:53.887Z,54.61
2022-08-08T06:38:01.761Z,54.00
2022-08-08T06:39:11.470Z,53.49
2022-08-08T06:40:19.475Z,55.00
2022-08-08T06:41:33.190Z,54.01
2022-08-08T06:42:40.044Z,54.71
2022-08-08T06:43:47.670Z,54.26
2022-08-08T06:45:05.501Z,54.63
2022-08-08T06:46:12.686Z,54.28
2022-08-08T06:47:22.114Z,54.35
2022-08-08T06:48:26.537Z,54.14
2022-08-08T06:49:56.411Z,54.11
2022-08-08T06:50:54.021Z,54.81
2022-08-08T06:52:00.171Z,53.84
2022-08-08T06:53:13.983Z,54.12
2022-08-08T06:54:24.059Z,54.80
2022-08-08T06:55:27.671Z,54.28
2022-08-08T06:56:40.655Z,54.73
2022-08-08T06:57:57.273Z,54.58
2022-08-08T06:59:09.821Z,53.70
2022-08-08T07:00:16.833Z,53.45
2022-08-08T07:02:24.369Z,53.77
2022-08-08T07:03:09.733Z,53.84
2022-08-08T07:04:47.997Z,54.08
2022-08-08T07:06:02.390Z,54.17
2022-08-08T07:07:12.170Z,53.67
2022-08-08T07:08:29.118Z,54.14
2022-08-08T07:09:45.422Z,53.94
2022-08-08T07:11:05.589Z,53.27
2022-08-08T07:12:14.653Z,52.91
2022-08-08T07:13:25.168Z,52.79
2022-08-08T07:14:42.276Z,52.82
2022-08-08T07:16:06.305Z,52.90
2022-08-08T07:17:19.735Z,53.24
2022-08-08T07:18:41.121Z,53.02
2022-08-08T07:19:59.724Z,52.82
2022-08-08T07:21:18.371Z,52.87
2022-08-08T07:22:30.575Z,52.92
2022-08-08T07:24:01.751Z,53.98
2022-08-08T07:25:07.115Z,53.00
2022-08-08T07:26:11.373Z,53.66
2022-08-08T07:27:17.098Z,53.73
2022-08-08T07:28:24.360Z,52.83
2022-08-08T07:30:01.856Z,52.92
2022-08-08T07:31:02.343Z,53.34
2022-08-08T07:32:07.096Z,54.38
2022-08-08T07:33:11.817Z,53.81
2022-08-08T07:34:31.822Z,53.93
2022-08-08T07:35:38.131Z,54.46
2022-08-08T07:36:48.300Z,54.96
2022-08-08T07:38:05.110Z,54.71
2022-08-08T07:39:39.279Z,55.26
2022-08-08T07:40:50.567Z,54.78
2022-08-08T07:42:03.584Z,54.49
2022-08-08T07:43:09.465Z,54.57
2022-08-08T07:44:34.177Z,54.20
2022-08-08T07:46:05.401Z,53.37
2022-08-08T07:47:04.955Z,53.30
2022-08-08T07:48:08.565Z,52.87
2022-08-08T07:49:13.465Z,52.84
2022-08-08T07:50:23.447Z,53.25
2022-08-08T07:51:44.279Z,53.90
2022-08-08T07:52:53.794Z,53.13
2022-08-08T07:54:06.863Z,53.58
2022-08-08T07:55:20.537Z,53.23
2022-08-08T07:56:35.443Z,53.16
2022-08-08T07:57:51.939Z,53.11
2022-08-08T07:58:56.441Z,52.68
2022-08-08T08:00:16.270Z,51.96
2022-08-08T08:02:32.911Z,51.94
2022-08-08T08:03:09.808Z,51.63
2022-08-08T08:04:25.675Z,51.95
2022-08-08T08:05:33.496Z,50.96
2022-08-08T08:06:38.543Z,50.79
2022-08-08T08:07:45.888Z,51.58
2022-08-08T08:08:55.618Z,52.14
2022-08-08T08:10:04.476Z,51.99
2022-08-08T08:11:19.821Z,51.13
2022-08-08T08:12:26.551Z,51.14
2022-08-08T08:14:08.031Z,51.37
2022-08-08T08:15:06.953Z,50.50
2022-08-08T08:16:19.131Z,51.41
2022-08-08T08:17:36.330Z,50.94
2022-08-08T08:18:51.859Z,50.88
2022-08-08T08:20:03.135Z,50.26
2022-08-08T08:21:18.655Z,50.38
2022-08-08T08:22:31.210Z,49.48
2022-08-08T08:23:40.733Z,50.29
2022-08-08T08:24:46.292Z,49.88
2022-08-08T08:25:52.986Z,50.82
2022-08-08T08:27:02.744Z,51.11
2022-08-08T08:28:09.175Z,50.86
2022-08-08T08:29:13.869Z,50.65
2022-08-08T08:30:21.255Z,51.08
2022-08-08T08:31:28.891Z,50.80
2022-08-08T08:32:51.258Z,50.71
2022-08-08T08:33:56.492Z,51.37
2022-08-08T08:35:00.706Z,51.58
2022-08-08T08:36:19.010Z,51.52
2022-08-08T08:37:30.039Z,51.44
2022-08-08T08:38:34.658Z,50.49
2022-08-08T08:40:00.520Z,50.14
2022-08-08T08:41:13.202Z,50.12
2022-08-08T08:42:31.607Z,49.98
2022-08-08T08:43:42.531Z,50.79
2022-08-08T08:44:49.849Z,49.41
2022-08-08T08:45:57.426Z,49.32
2022-08-08T08:47:02.815Z,49.66
2022-08-08T08:48:10.993Z,49.61
2022-08-08T08:49:25.982Z,48.75
2022-08-08T08:50:35.217Z,48.38
2022-08-08T08:51:51.253Z,49.27
2022-08-08T08:52:59.804Z,49.42
2022-08-08T08:54:09.155Z,49.48
2022-08-08T08:55:15.548Z,50.13
2022-08-08T08:56:26.074Z,50.09
2022-08-08T08:57:38.804Z,49.89
2022-08-08T08:58:46.812Z,49.58
2022-08-08T09:00:05.612Z,49.66
2022-08-08T09:01:15.962Z,49.69
2022-08-08T09:02:24.194Z,50.13
2022-08-08T09:03:45.534Z,50.20
2022-08-08T09:04:57.466Z,50.42
2022-08-08T09:06:01.757Z,50.01
2022-08-08T09:07:12.704Z,50.32
2022-08-08T09:08:21.329Z,48.61
2022-08-08T09:09:40.213Z,48.99
2022-08-08T09:10:54.604Z,49.48
2022-08-08T09:12:02.183Z,48.76
2022-08-08T09:13:09.992Z,48.86
2022-08-08T09:14:12.467Z,49.34
2022-08-08T09:15:24.194Z,48.06
2022-08-08T09:16:40.285Z,48.96
2022-08-08T09:17:55.862Z,49.88
2022-08-08T09:19:01.423Z,50.19
2022-08-08T09:21:56.517Z,49.95
2022-08-08T09:21:56.920Z,49.61
2022-08-08T09:22:58.855Z,49.53
2022-08-08T09:24:04.080Z,49.52
2022-08-08T09:25:10.417Z,49.20
2022-08-08T09:26:22.072Z,49.17
2022-08-08T09:27:55.654Z,48.84
2022-08-08T09:28:50.098Z,48.25
2022-08-08T09:30:03.288Z,47.07
2022-08-08T09:31:13.875Z,47.31
2022-08-08T09:32:35.261Z,47.36
2022-08-08T09:34:16.189Z,47.45
2022-08-08T09:35:08.896Z,47.73
2022-08-08T09:36:20.919Z,47.91
2022-08-08T09:38:01.975Z,47.97
2022-08-08T09:39:01.290Z,46.09
2022-08-08T09:40:10.705Z,46.39
2022-08-08T09:41:18.147Z,46.45
2022-08-08T09:42:25.786Z,46.76
2022-08-08T09:43:40.790Z,47.75
2022-08-08T09:45:15.305Z,48.04
2022-08-08T09:46:25.445Z,47.55
2022-08-08T09:48:04.552Z,47.61
2022-08-08T09:49:17.943Z,48.07
2022-08-08T09:50:28.289Z,48.41
2022-08-08T09:52:01.884Z,48.16
2022-08-08T09:53:05.502Z,47.58
2022-08-08T09:54:37.012Z,47.60
2022-08-08T09:56:03.295Z,48.05
2022-08-08T09:57:17.014Z,48.45
2022-08-08T09:58:27.557Z,47.12
2022-08-08T10:00:02.508Z,47.15
2022-08-08T10:01:59.054Z,47.49
2022-08-08T10:02:47.869Z,48.03
2022-08-08T10:03:55.769Z,49.35
2022-08-08T10:05:14.299Z,48.95
2022-08-08T10:06:18.785Z,47.85
2022-08-08T10:07:20.997Z,48.13
2022-08-08T10:08:23.991Z,47.22
2022-08-08T10:09:58.737Z,47.99
2022-08-08T10:10:59.732Z,47.50
2022-08-08T10:12:27.311Z,48.12
2022-08-08T10:13:35.526Z,45.31
2022-08-08T10:14:39.553Z,45.37
2022-08-08T10:16:00.702Z,45.17
2022-08-08T10:17:57.402Z,43.95
2022-08-08T10:18:29.440Z,44.52
2022-08-08T10:19:57.768Z,45.11
2022-08-08T10:21:22.641Z,44.85
2022-08-08T10:22:28.358Z,44.39
2022-08-08T10:23:47.045Z,45.15
2022-08-08T10:25:07.275Z,44.74
2022-08-08T10:26:25.932Z,45.04
2022-08-08T10:27:41.774Z,44.75
2022-08-08T10:28:55.703Z,45.56
2022-08-08T10:30:01.523Z,45.34
2022-08-08T10:31:25.294Z,44.98
2022-08-08T10:32:52.537Z,45.40
2022-08-08T10:34:20.190Z,46.05
2022-08-08T10:36:20.365Z,45.68
2022-08-08T10:36:47.295Z,45.06
2022-08-08T10:37:55.856Z,43.54
2022-08-08T10:39:03.589Z,43.83
2022-08-08T10:40:19.641Z,44.65
2022-08-08T10:41:35.126Z,46.09
2022-08-08T10:42:38.785Z,46.47
2022-08-08T10:43:51.572Z,47.82
2022-08-08T10:45:00.993Z,45.34
2022-08-08T10:46:04.059Z,45.37
2022-08-08T10:47:26.017Z,45.14
2022-08-08T10:48:57.559Z,45.58
2022-08-08T10:50:04.467Z,45.10
2022-08-08T10:51:13.233Z,44.16
2022-08-08T10:52:30.019Z,43.73
2022-08-08T10:53:56.906Z,44.00
2022-08-08T10:55:06.222Z,44.69
2022-08-08T10:56:27.031Z,45.38
2022-08-08T10:57:50.557Z,45.16
2022-08-08T10:58:58.645Z,44.81
2022-08-08T11:00:01.719Z,44.75
2022-08-08T11:01:12.454Z,44.64
2022-08-08T11:02:14.817Z,44.32
2022-08-08T11:03:52.390Z,43.76
2022-08-08T11:04:53.813Z,43.44
2022-08-08T11:06:00.620Z,44.89
2022-08-08T11:07:03.096Z,43.18
2022-08-08T11:08:37.193Z,44.58
2022-08-08T11:09:31.931Z,43.35
2022-08-08T11:10:35.669Z,44.06
2022-08-08T11:12:06.024Z,44.04
2022-08-08T11:14:27.696Z,43.75
2022-08-08T11:15:31.834Z,44.57
2022-08-08T11:16:35.362Z,44.15
2022-08-08T11:17:59.534Z,44.34
2022-08-08T11:19:05.204Z,42.86
2022-08-08T11:20:12.582Z,44.31
2022-08-08T11:21:19.550Z,43.68
2022-08-08T11:22:26.998Z,44.46
2022-08-08T11:23:33.992Z,43.24
2022-08-08T11:24:37.946Z,43.40
2022-08-08T11:25:56.867Z,43.47
2022-08-08T11:27:10.713Z,44.25
2022-08-08T11:28:29.109Z,44.67
2022-08-08T11:29:51.161Z,45.62
2022-08-08T11:30:59.764Z,44.64
2022-08-08T11:32:03.795Z,45.57
2022-08-08T11:33:12.356Z,44.53
2022-08-08T11:34:23.442Z,44.00
2022-08-08T11:35:37.704Z,44.67
2022-08-08T11:36:45.795Z,44.08
2022-08-08T11:38:36.329Z,43.83
2022-08-08T11:39:19.830Z,44.82
2022-08-08T11:40:26.694Z,44.93
2022-08-08T11:41:32.286Z,45.18
2022-08-08T11:42:39.147Z,44.86
2022-08-08T11:43:45.183Z,44.77
2022-08-08T11:44:55.064Z,44.30
2022-08-08T11:46:11.854Z,43.59
2022-08-08T11:47:17.600Z,43.79
2022-08-08T11:48:27.878Z,44.20
2022-08-08T11:49:30.378Z,44.29
2022-08-08T11:50:34.362Z,44.25
2022-08-08T11:51:39.530Z,44.65
2022-08-08T11:52:47.377Z,44.22
2022-08-08T11:53:55.238Z,43.77
2022-08-08T11:55:03.103Z,44.24
2022-08-08T11:56:19.108Z,45.06
2022-08-08T11:57:27.646Z,44.33
2022-08-08T11:58:35.469Z,44.51
2022-08-08T12:00:01.868Z,44.39
2022-08-08T12:01:17.149Z,44.74
2022-08-08T12:02:35.148Z,44.82
2022-08-08T12:03:46.904Z,45.05
2022-08-08T12:04:48.896Z,44.26
2022-08-08T12:05:52.559Z,44.20
2022-08-08T12:07:03.551Z,43.77
2022-08-08T12:08:07.071Z,44.20
2022-08-08T12:09:09.747Z,44.98
2022-08-08T12:10:22.551Z,44.37
2022-08-08T12:11:28.463Z,44.09
2022-08-08T12:12:45.964Z,44.26
2022-08-08T12:14:03.329Z,44.56
2022-08-08T12:15:09.600Z,44.64
2022-08-08T12:16:13.917Z,43.84
2022-08-08T12:17:17.813Z,45.31
2022-08-08T12:18:24.587Z,43.99
2022-08-08T12:19:37.815Z,44.93
2022-08-08T12:20:53.240Z,46.47
2022-08-08T12:22:09.308Z,43.35
2022-08-08T12:23:30.552Z,43.46
2022-08-08T12:24:54.029Z,43.51
2022-08-08T12:26:09.677Z,44.58
2022-08-08T12:27:18.203Z,45.38
2022-08-08T12:28:21.483Z,44.56
2022-08-08T12:29:42.107Z,44.38
2022-08-08T12:30:49.907Z,44.62
2022-08-08T12:32:09.534Z,45.27
2022-08-08T12:33:19.714Z,45.24
2022-08-08T12:34:38.057Z,44.32
2022-08-08T12:35:52.804Z,43.40
2022-08-08T12:37:05.285Z,43.60
2022-08-08T12:38:17.541Z,42.87
2022-08-08T12:39:58.196Z,43.15
2022-08-08T12:40:56.390Z,43.55
2022-08-08T12:42:04.750Z,43.60
2022-08-08T12:43:09.334Z,43.88
2022-08-08T12:44:30.352Z,43.06
2022-08-08T12:45:59.480Z,43.06
2022-08-08T12:47:02.863Z,44.01
2022-08-08T12:48:36.923Z,45.18
2022-08-08T12:49:45.090Z,43.92
2022-08-08T12:50:49.777Z,42.99
2022-08-08T12:51:58.814Z,43.22
2022-08-08T12:53:03.023Z,43.24
2022-08-08T12:54:24.292Z,42.81
2022-08-08T12:55:35.439Z,43.49
2022-08-08T12:56:52.108Z,42.93
2022-08-08T12:57:56.923Z,42.97
2022-08-08T12:59:00.092Z,43.23
2022-08-08T13:00:12.137Z,43.35
2022-08-08T13:01:17.923Z,43.97
2022-08-08T13:02:42.299Z,43.99
2022-08-08T13:03:53.659Z,43.72
2022-08-08T13:05:00.825Z,43.98
2022-08-08T13:06:13.917Z,43.77
2022-08-08T13:07:17.606Z,43.32
2022-08-08T13:08:53.135Z,43.28
2022-08-08T13:10:04.735Z,43.19
2022-08-08T13:11:18.075Z,43.07
2022-08-08T13:12:29.476Z,43.25
2022-08-08T13:13:37.369Z,43.77
2022-08-08T13:14:53.125Z,44.34
2022-08-08T13:15:56.205Z,43.95
2022-08-08T13:17:01.128Z,43.09
2022-08-08T13:18:10.589Z,43.00
2022-08-08T13:19:17.963Z,43.63
2022-08-08T13:20:24.091Z,43.45
2022-08-08T13:21:52.727Z,42.97
2022-08-08T13:23:20.145Z,43.04
2022-08-08T13:24:18.566Z,43.14
2022-08-08T13:25:40.258Z,43.54
2022-08-08T13:26:42.316Z,44.05
2022-08-08T13:27:53.256Z,42.79
2022-08-08T13:28:56.818Z,42.43
2022-08-08T13:30:02.612Z,42.13
2022-08-08T13:31:05.600Z,42.71
2022-08-08T13:32:10.743Z,42.57
2022-08-08T13:33:18.613Z,42.14
2022-08-08T13:34:29.339Z,42.56
2022-08-08T13:35:43.926Z,42.59
2022-08-08T13:36:53.079Z,42.60
2022-08-08T13:38:06.492Z,43.17
2022-08-08T13:39:09.731Z,43.11
2022-08-08T13:40:17.338Z,42.51
2022-08-08T13:41:21.820Z,42.29
2022-08-08T13:42:26.318Z,42.39
2022-08-08T13:43:29.995Z,43.10
2022-08-08T13:44:33.704Z,42.62
2022-08-08T13:45:40.857Z,42.66
2022-08-08T13:46:55.362Z,43.18
2022-08-08T13:48:00.600Z,42.79
2022-08-08T13:49:11.891Z,42.92
2022-08-08T13:50:36.695Z,42.91
2022-08-08T13:51:55.357Z,42.84
2022-08-08T13:52:58.338Z,42.75
2022-08-08T13:54:01.122Z,42.90
2022-08-08T13:55:07.411Z,42.80
2022-08-08T13:56:11.457Z,43.07
2022-08-08T13:57:16.710Z,42.98
2022-08-08T13:58:20.054Z,42.80
2022-08-08T13:59:32.659Z,42.07
2022-08-08T14:00:44.991Z,42.92
2022-08-08T14:01:57.977Z,42.58
2022-08-08T14:03:26.401Z,42.35
2022-08-08T14:04:27.965Z,42.63
2022-08-08T14:05:34.254Z,42.25
2022-08-08T14:06:44.611Z,41.50
2022-08-08T14:07:52.985Z,41.25
2022-08-08T14:08:59.108Z,41.35
2022-08-08T14:10:11.860Z,41.59
2022-08-08T14:11:23.217Z,41.25
2022-08-08T14:12:28.436Z,41.16
2022-08-08T14:13:34.165Z,41.36
2022-08-08T14:14:42.568Z,42.46
2022-08-08T14:15:50.470Z,42.63
2022-08-08T14:16:52.677Z,43.17
2022-08-08T14:17:58.326Z,43.29
2022-08-08T14:19:54.234Z,43.43
2022-08-08T14:21:03.625Z,42.67
2022-08-08T14:22:14.861Z,43.47
2022-08-08T14:24:06.339Z,42.86
2022-08-08T14:24:49.927Z,43.24
2022-08-08T14:25:59.410Z,43.31
2022-08-08T14:27:17.199Z,43.27
2022-08-08T14:28:20.630Z,43.71
2022-08-08T14:29:31.219Z,43.26
2022-08-08T14:30:42.277Z,43.64
2022-08-08T14:32:11.008Z,43.50
2022-08-08T14:33:27.369Z,42.77
2022-08-08T14:34:39.940Z,42.76
2022-08-08T14:35:49.548Z,43.04
2022-08-08T14:36:55.677Z,44.76
2022-08-08T14:38:05.964Z,46.38
2022-08-08T14:39:19.104Z,46.29
2022-08-08T14:40:23.908Z,45.29
2022-08-08T14:41:45.276Z,45.38
2022-08-08T14:42:56.566Z,45.25
2022-08-08T14:44:11.690Z,45.50
2022-08-08T14:45:18.434Z,44.08
2022-08-08T14:46:34.091Z,43.71
2022-08-08T14:47:47.535Z,43.93
2022-08-08T14:48:59.018Z,43.92
2022-08-08T14:50:15.051Z,44.57
2022-08-08T14:51:21.035Z,44.71
2022-08-08T14:52:25.669Z,44.74
2022-08-08T14:53:37.380Z,44.78
2022-08-08T14:54:58.374Z,44.13
2022-08-08T14:56:01.890Z,44.78
2022-08-08T14:57:04.993Z,45.81
2022-08-08T14:58:11.824Z,45.71
2022-08-08T14:59:22.365Z,44.74
2022-08-08T15:00:42.187Z,43.47
2022-08-08T15:01:49.841Z,44.03
2022-08-08T15:02:59.093Z,43.86
2022-08-08T15:04:16.757Z,43.73
2022-08-08T15:05:34.199Z,43.35
2022-08-08T15:06:45.732Z,43.22
2022-08-08T15:07:59.675Z,42.68
2022-08-08T15:09:02.988Z,42.87
2022-08-08T15:10:09.572Z,42.50
2022-08-08T15:11:19.222Z,43.20
2022-08-08T15:12:27.589Z,42.83
2022-08-08T15:13:35.212Z,42.54
2022-08-08T15:14:42.476Z,42.46
2022-08-08T15:16:01.833Z,41.87
2022-08-08T15:17:04.431Z,41.76
2022-08-08T15:18:11.364Z,42.37
2022-08-08T15:19:14.907Z,42.84
2022-08-08T15:20:18.686Z,42.62
2022-08-08T15:21:22.237Z,42.82
2022-08-08T15:22:25.394Z,42.75
2022-08-08T15:23:34.640Z,43.25
2022-08-08T15:24:37.656Z,43.29
2022-08-08T15:25:40.733Z,43.36
2022-08-08T15:26:52.257Z,43.52
2022-08-08T15:28:03.460Z,43.60
2022-08-08T15:29:18.476Z,44.53
2022-08-08T15:30:26.547Z,44.94
2022-08-08T15:32:03.029Z,44.29
2022-08-08T15:32:51.770Z,43.63
2022-08-08T15:33:59.336Z,42.83
2022-08-08T15:35:04.313Z,43.26
2022-08-08T15:36:10.751Z,43.55
2022-08-08T15:37:21.843Z,43.60
2022-08-08T15:38:23.866Z,44.00
2022-08-08T15:39:31.500Z,44.15
2022-08-08T15:40:40.698Z,43.89
2022-08-08T15:41:46.289Z,43.94
2022-08-08T15:42:49.745Z,44.17
2022-08-08T15:44:00.893Z,43.60
2022-08-08T15:45:04.930Z,43.87
2022-08-08T15:46:07.317Z,43.09
2022-08-08T15:47:16.004Z,43.78
2022-08-08T15:48:20.876Z,42.72
2022-08-08T15:49:26.845Z,45.15
2022-08-08T15:50:47.075Z,44.03
2022-08-08T15:51:54.715Z,45.56
2022-08-08T15:52:59.625Z,44.88
2022-08-08T15:54:01.672Z,44.92
2022-08-08T15:55:05.054Z,43.48
2022-08-08T15:56:12.691Z,42.78
2022-08-08T15:57:16.527Z,42.24
2022-08-08T15:58:21.352Z,42.75
2022-08-08T16:00:05.661Z,44.11
2022-08-08T16:00:54.588Z,44.15
2022-08-08T16:02:00.543Z,44.35
2022-08-08T16:03:03.976Z,45.42
2022-08-08T16:04:07.068Z,45.29
2022-08-08T16:05:15.801Z,44.89
2022-08-08T16:06:28.780Z,43.38
2022-08-08T16:07:51.753Z,47.65
2022-08-08T16:09:02.179Z,44.96
2022-08-08T16:13:14.145Z,45.07
2022-08-08T16:13:15.357Z,45.60
2022-08-08T16:13:33.448Z,43.57